sensor_id;sensor_type;location;lat;lon;timestamp;P1;durP1;ratioP1;P2;durP2;ratioP2
39956;SDS011;48483;44.640;7.494;2023-02-15T00:01:04;23.30;;;14.32;;
39956;SDS011;48483;44.640;7.494;2023-02-15T00:03:33;23.08;;;15.00;;
39956;SDS011;48483;44.640;7.494;2023-02-15T00:06:00;23.30;;;14.38;;
39956;SDS011;48483;44.640;7.494;2023-02-15T00:08:27;21.85;;;13.50;;
39956;SDS011;48483;44.640;7.494;2023-02-15T00:11:02;23.85;;;14.52;;
39956;SDS011;48483;44.640;7.494;2023-02-15T00:13:30;23.17;;;16.33;;
39956;SDS011;48483;44.640;7.494;2023-02-15T00:15:59;26.67;;;15.25;;
39956;SDS011;48483;44.640;7.494;2023-02-15T00:18:27;23.48;;;15.85;;
39956;SDS011;48483;44.640;7.494;2023-02-15T00:20:55;26.45;;;17.10;;
39956;SDS011;48483;44.640;7.494;2023-02-15T00:23:21;24.05;;;16.55;;
39956;SDS011;48483;44.640;7.494;2023-02-15T00:25:48;23.60;;;16.33;;
39956;SDS011;48483;44.640;7.494;2023-02-15T00:28:15;26.58;;;17.30;;
39956;SDS011;48483;44.640;7.494;2023-02-15T00:30:42;26.42;;;17.95;;
39956;SDS011;48483;44.640;7.494;2023-02-15T00:33:08;23.60;;;15.82;;
39956;SDS011;48483;44.640;7.494;2023-02-15T00:35:35;24.38;;;16.33;;
39956;SDS011;48483;44.640;7.494;2023-02-15T00:38:03;22.60;;;15.55;;
39956;SDS011;48483;44.640;7.494;2023-02-15T00:40:30;23.42;;;15.77;;
39956;SDS011;48483;44.640;7.494;2023-02-15T00:42:57;24.27;;;15.55;;
39956;SDS011;48483;44.640;7.494;2023-02-15T00:45:24;24.60;;;16.48;;
39956;SDS011;48483;44.640;7.494;2023-02-15T00:47:51;26.25;;;16.35;;
39956;SDS011;48483;44.640;7.494;2023-02-15T00:50:18;26.73;;;16.60;;
39956;SDS011;48483;44.640;7.494;2023-02-15T00:52:45;27.17;;;15.73;;
39956;SDS011;48483;44.640;7.494;2023-02-15T00:55:14;29.80;;;16.45;;
39956;SDS011;48483;44.640;7.494;2023-02-15T00:57:40;24.98;;;16.33;;
39956;SDS011;48483;44.640;7.494;2023-02-15T01:00:07;25.42;;;16.38;;
39956;SDS011;48483;44.640;7.494;2023-02-15T01:02:35;24.50;;;16.27;;
39956;SDS011;48483;44.640;7.494;2023-02-15T01:05:02;24.25;;;15.27;;
39956;SDS011;48483;44.640;7.494;2023-02-15T01:07:28;25.77;;;15.57;;
39956;SDS011;48483;44.640;7.494;2023-02-15T01:09:55;23.65;;;16.05;;
39956;SDS011;48483;44.640;7.494;2023-02-15T01:12:23;27.33;;;16.98;;
39956;SDS011;48483;44.640;7.494;2023-02-15T01:14:49;25.90;;;16.95;;
39956;SDS011;48483;44.640;7.494;2023-02-15T01:17:16;24.02;;;15.02;;
39956;SDS011;48483;44.640;7.494;2023-02-15T01:19:43;21.48;;;15.18;;
39956;SDS011;48483;44.640;7.494;2023-02-15T01:22:09;25.13;;;17.15;;
39956;SDS011;48483;44.640;7.494;2023-02-15T01:24:36;22.92;;;15.13;;
39956;SDS011;48483;44.640;7.494;2023-02-15T01:27:03;23.70;;;15.25;;
39956;SDS011;48483;44.640;7.494;2023-02-15T01:29:31;23.15;;;15.55;;
39956;SDS011;48483;44.640;7.494;2023-02-15T01:31:57;23.48;;;15.73;;
39956;SDS011;48483;44.640;7.494;2023-02-15T01:34:24;23.77;;;15.65;;
39956;SDS011;48483;44.640;7.494;2023-02-15T01:36:50;24.23;;;15.32;;
39956;SDS011;48483;44.640;7.494;2023-02-15T01:39:17;23.45;;;15.13;;
39956;SDS011;48483;44.640;7.494;2023-02-15T01:41:44;21.52;;;14.50;;
39956;SDS011;48483;44.640;7.494;2023-02-15T01:47:20;18.77;;;12.38;;
39956;SDS011;48483;44.640;7.494;2023-02-15T01:49:54;20.13;;;12.20;;
39956;SDS011;48483;44.640;7.494;2023-02-15T01:52:27;18.00;;;12.05;;
39956;SDS011;48483;44.640;7.494;2023-02-15T01:54:54;20.48;;;12.52;;
39956;SDS011;48483;44.640;7.494;2023-02-15T01:57:22;19.63;;;11.95;;
39956;SDS011;48483;44.640;7.494;2023-02-15T01:59:53;20.98;;;14.07;;
39956;SDS011;48483;44.640;7.494;2023-02-15T02:02:24;18.67;;;12.45;;
39956;SDS011;48483;44.640;7.494;2023-02-15T02:04:53;19.33;;;12.60;;
39956;SDS011;48483;44.640;7.494;2023-02-15T02:07:23;19.35;;;11.75;;
39956;SDS011;48483;44.640;7.494;2023-02-15T02:09:52;19.77;;;11.93;;
39956;SDS011;48483;44.640;7.494;2023-02-15T02:12:23;18.73;;;12.30;;
39956;SDS011;48483;44.640;7.494;2023-02-15T02:14:50;18.67;;;13.38;;
39956;SDS011;48483;44.640;7.494;2023-02-15T02:17:21;22.08;;;13.15;;
39956;SDS011;48483;44.640;7.494;2023-02-15T02:20:04;17.88;;;11.77;;
39956;SDS011;48483;44.640;7.494;2023-02-15T02:23:08;20.83;;;12.23;;
39956;SDS011;48483;44.640;7.494;2023-02-15T02:35:09;21.70;;;13.45;;
39956;SDS011;48483;44.640;7.494;2023-02-15T02:37:45;21.10;;;13.77;;
39956;SDS011;48483;44.640;7.494;2023-02-15T02:40:20;24.45;;;14.10;;
39956;SDS011;48483;44.640;7.494;2023-02-15T02:42:54;22.02;;;15.27;;
39956;SDS011;48483;44.640;7.494;2023-02-15T02:45:25;23.35;;;15.00;;
39956;SDS011;48483;44.640;7.494;2023-02-15T02:47:56;27.83;;;17.92;;
39956;SDS011;48483;44.640;7.494;2023-02-15T02:50:30;26.45;;;16.88;;
39956;SDS011;48483;44.640;7.494;2023-02-15T02:52:57;27.35;;;18.05;;
39956;SDS011;48483;44.640;7.494;2023-02-15T02:55:25;28.83;;;17.75;;
39956;SDS011;48483;44.640;7.494;2023-02-15T02:57:55;28.27;;;17.75;;
39956;SDS011;48483;44.640;7.494;2023-02-15T03:00:27;31.63;;;19.02;;
39956;SDS011;48483;44.640;7.494;2023-02-15T03:05:32;29.67;;;17.40;;
39956;SDS011;48483;44.640;7.494;2023-02-15T03:08:02;25.55;;;17.55;;
39956;SDS011;48483;44.640;7.494;2023-02-15T03:10:31;28.17;;;19.08;;
39956;SDS011;48483;44.640;7.494;2023-02-15T03:13:00;28.05;;;18.08;;
39956;SDS011;48483;44.640;7.494;2023-02-15T03:15:28;25.52;;;17.45;;
39956;SDS011;48483;44.640;7.494;2023-02-15T03:18:17;28.93;;;19.17;;
39956;SDS011;48483;44.640;7.494;2023-02-15T03:20:49;26.67;;;17.02;;
39956;SDS011;48483;44.640;7.494;2023-02-15T03:23:19;30.50;;;17.88;;
39956;SDS011;48483;44.640;7.494;2023-02-15T03:25:50;26.73;;;17.85;;
39956;SDS011;48483;44.640;7.494;2023-02-15T03:28:23;27.42;;;17.95;;
39956;SDS011;48483;44.640;7.494;2023-02-15T03:30:53;27.70;;;18.55;;
39956;SDS011;48483;44.640;7.494;2023-02-15T03:33:24;30.85;;;19.83;;
39956;SDS011;48483;44.640;7.494;2023-02-15T03:35:56;30.55;;;19.25;;
39956;SDS011;48483;44.640;7.494;2023-02-15T03:38:33;25.50;;;17.10;;
39956;SDS011;48483;44.640;7.494;2023-02-15T03:41:02;27.02;;;17.08;;
39956;SDS011;48483;44.640;7.494;2023-02-15T03:43:38;23.88;;;16.00;;
39956;SDS011;48483;44.640;7.494;2023-02-15T03:46:13;22.85;;;15.35;;
39956;SDS011;48483;44.640;7.494;2023-02-15T03:48:46;22.42;;;13.85;;
39956;SDS011;48483;44.640;7.494;2023-02-15T03:51:19;20.13;;;12.88;;
39956;SDS011;48483;44.640;7.494;2023-02-15T03:54:00;16.42;;;11.65;;
39956;SDS011;48483;44.640;7.494;2023-02-15T03:56:29;15.23;;;10.45;;
39956;SDS011;48483;44.640;7.494;2023-02-15T03:58:56;17.05;;;11.38;;
39956;SDS011;48483;44.640;7.494;2023-02-15T04:01:44;17.90;;;10.60;;
39956;SDS011;48483;44.640;7.494;2023-02-15T04:04:27;15.95;;;10.27;;
39956;SDS011;48483;44.640;7.494;2023-02-15T04:06:59;17.70;;;11.52;;
39956;SDS011;48483;44.640;7.494;2023-02-15T04:09:26;18.40;;;12.52;;
39956;SDS011;48483;44.640;7.494;2023-02-15T04:12:11;16.15;;;10.15;;
39956;SDS011;48483;44.640;7.494;2023-02-15T04:14:38;16.55;;;10.82;;
39956;SDS011;48483;44.640;7.494;2023-02-15T04:17:23;16.45;;;11.40;;
39956;SDS011;48483;44.640;7.494;2023-02-15T04:19:49;18.08;;;10.77;;
39956;SDS011;48483;44.640;7.494;2023-02-15T04:22:36;16.88;;;10.30;;
39956;SDS011;48483;44.640;7.494;2023-02-15T04:25:21;17.65;;;10.00;;
39956;SDS011;48483;44.640;7.494;2023-02-15T04:27:48;17.27;;;9.48;;
39956;SDS011;48483;44.640;7.494;2023-02-15T04:30:16;15.68;;;9.30;;
39956;SDS011;48483;44.640;7.494;2023-02-15T04:32:44;14.80;;;9.27;;
39956;SDS011;48483;44.640;7.494;2023-02-15T04:35:11;13.73;;;9.50;;
39956;SDS011;48483;44.640;7.494;2023-02-15T04:37:40;15.57;;;9.70;;
39956;SDS011;48483;44.640;7.494;2023-02-15T04:40:09;16.35;;;10.15;;
39956;SDS011;48483;44.640;7.494;2023-02-15T04:42:37;22.75;;;12.75;;
39956;SDS011;48483;44.640;7.494;2023-02-15T04:45:04;27.33;;;14.85;;
39956;SDS011;48483;44.640;7.494;2023-02-15T04:47:31;23.92;;;13.68;;
39956;SDS011;48483;44.640;7.494;2023-02-15T04:49:58;23.73;;;15.57;;
39956;SDS011;48483;44.640;7.494;2023-02-15T04:52:24;25.27;;;15.05;;
39956;SDS011;48483;44.640;7.494;2023-02-15T04:54:53;27.08;;;15.88;;
39956;SDS011;48483;44.640;7.494;2023-02-15T04:57:19;24.90;;;15.45;;
39956;SDS011;48483;44.640;7.494;2023-02-15T04:59:46;26.38;;;15.23;;
39956;SDS011;48483;44.640;7.494;2023-02-15T05:02:12;24.58;;;14.73;;
39956;SDS011;48483;44.640;7.494;2023-02-15T05:04:39;24.15;;;14.60;;
39956;SDS011;48483;44.640;7.494;2023-02-15T05:07:05;25.08;;;16.88;;
39956;SDS011;48483;44.640;7.494;2023-02-15T05:09:32;22.92;;;15.38;;
39956;SDS011;48483;44.640;7.494;2023-02-15T05:12:00;22.75;;;14.80;;
39956;SDS011;48483;44.640;7.494;2023-02-15T05:14:26;22.42;;;14.00;;
39956;SDS011;48483;44.640;7.494;2023-02-15T05:16:53;23.83;;;13.80;;
39956;SDS011;48483;44.640;7.494;2023-02-15T05:19:19;25.45;;;14.65;;
39956;SDS011;48483;44.640;7.494;2023-02-15T05:21:46;21.02;;;13.57;;
39956;SDS011;48483;44.640;7.494;2023-02-15T05:24:12;21.13;;;14.88;;
39956;SDS011;48483;44.640;7.494;2023-02-15T05:26:59;21.73;;;12.82;;
39956;SDS011;48483;44.640;7.494;2023-02-15T05:29:44;18.55;;;11.75;;
39956;SDS011;48483;44.640;7.494;2023-02-15T05:32:12;19.77;;;12.50;;
39956;SDS011;48483;44.640;7.494;2023-02-15T05:34:39;19.58;;;11.93;;
39956;SDS011;48483;44.640;7.494;2023-02-15T05:37:06;26.45;;;12.93;;
39956;SDS011;48483;44.640;7.494;2023-02-15T05:39:33;19.20;;;12.98;;
39956;SDS011;48483;44.640;7.494;2023-02-15T05:42:01;19.25;;;13.05;;
39956;SDS011;48483;44.640;7.494;2023-02-15T05:44:28;20.13;;;11.52;;
39956;SDS011;48483;44.640;7.494;2023-02-15T05:46:54;18.85;;;12.98;;
39956;SDS011;48483;44.640;7.494;2023-02-15T05:49:21;20.17;;;12.68;;
39956;SDS011;48483;44.640;7.494;2023-02-15T05:51:48;22.27;;;13.02;;
39956;SDS011;48483;44.640;7.494;2023-02-15T05:54:14;19.50;;;12.93;;
39956;SDS011;48483;44.640;7.494;2023-02-15T05:56:41;21.20;;;13.00;;
39956;SDS011;48483;44.640;7.494;2023-02-15T05:59:09;20.08;;;11.35;;
39956;SDS011;48483;44.640;7.494;2023-02-15T06:01:35;16.77;;;11.38;;
39956;SDS011;48483;44.640;7.494;2023-02-15T06:04:02;24.20;;;12.07;;
39956;SDS011;48483;44.640;7.494;2023-02-15T06:06:28;27.17;;;13.10;;
39956;SDS011;48483;44.640;7.494;2023-02-15T06:08:55;31.65;;;12.00;;
39956;SDS011;48483;44.640;7.494;2023-02-15T06:11:21;20.00;;;10.90;;
39956;SDS011;48483;44.640;7.494;2023-02-15T06:13:48;20.52;;;11.75;;
39956;SDS011;48483;44.640;7.494;2023-02-15T06:16:16;26.20;;;11.20;;
39956;SDS011;48483;44.640;7.494;2023-02-15T06:18:42;16.95;;;11.05;;
39956;SDS011;48483;44.640;7.494;2023-02-15T06:21:09;13.43;;;9.30;;
39956;SDS011;48483;44.640;7.494;2023-02-15T06:23:35;18.98;;;8.88;;
39956;SDS011;48483;44.640;7.494;2023-02-15T06:26:02;19.08;;;9.30;;
39956;SDS011;48483;44.640;7.494;2023-02-15T06:28:29;16.20;;;9.00;;
39956;SDS011;48483;44.640;7.494;2023-02-15T06:30:56;17.63;;;8.82;;
39956;SDS011;48483;44.640;7.494;2023-02-15T06:33:24;19.88;;;9.18;;
39956;SDS011;48483;44.640;7.494;2023-02-15T06:35:50;21.45;;;10.80;;
39956;SDS011;48483;44.640;7.494;2023-02-15T06:38:17;22.25;;;11.43;;
39956;SDS011;48483;44.640;7.494;2023-02-15T06:40:43;27.90;;;12.02;;
39956;SDS011;48483;44.640;7.494;2023-02-15T06:43:10;23.73;;;12.60;;
39956;SDS011;48483;44.640;7.494;2023-02-15T06:45:36;22.02;;;12.98;;
39956;SDS011;48483;44.640;7.494;2023-02-15T06:48:03;29.48;;;15.18;;
39956;SDS011;48483;44.640;7.494;2023-02-15T06:50:34;27.98;;;13.85;;
39956;SDS011;48483;44.640;7.494;2023-02-15T06:53:00;25.90;;;13.77;;
39956;SDS011;48483;44.640;7.494;2023-02-15T06:55:27;26.52;;;14.20;;
39956;SDS011;48483;44.640;7.494;2023-02-15T06:57:54;27.40;;;13.32;;
39956;SDS011;48483;44.640;7.494;2023-02-15T07:00:21;23.65;;;14.00;;
39956;SDS011;48483;44.640;7.494;2023-02-15T07:02:52;22.08;;;13.23;;
39956;SDS011;48483;44.640;7.494;2023-02-15T07:05:21;24.17;;;13.63;;
39956;SDS011;48483;44.640;7.494;2023-02-15T07:07:49;34.58;;;15.13;;
39956;SDS011;48483;44.640;7.494;2023-02-15T07:10:16;29.98;;;14.10;;
39956;SDS011;48483;44.640;7.494;2023-02-15T07:12:42;20.10;;;13.25;;
39956;SDS011;48483;44.640;7.494;2023-02-15T07:15:10;26.75;;;15.13;;
39956;SDS011;48483;44.640;7.494;2023-02-15T07:17:38;25.67;;;14.63;;
39956;SDS011;48483;44.640;7.494;2023-02-15T07:20:06;25.17;;;15.38;;
39956;SDS011;48483;44.640;7.494;2023-02-15T07:22:34;28.40;;;16.38;;
39956;SDS011;48483;44.640;7.494;2023-02-15T07:25:03;29.23;;;15.25;;
39956;SDS011;48483;44.640;7.494;2023-02-15T07:27:30;26.02;;;15.38;;
39956;SDS011;48483;44.640;7.494;2023-02-15T07:29:57;33.15;;;16.25;;
39956;SDS011;48483;44.640;7.494;2023-02-15T07:32:26;34.05;;;16.67;;
39956;SDS011;48483;44.640;7.494;2023-02-15T07:34:54;27.38;;;14.75;;
39956;SDS011;48483;44.640;7.494;2023-02-15T07:37:21;30.73;;;15.32;;
39956;SDS011;48483;44.640;7.494;2023-02-15T07:39:47;34.75;;;15.70;;
39956;SDS011;48483;44.640;7.494;2023-02-15T07:42:15;28.55;;;16.20;;
39956;SDS011;48483;44.640;7.494;2023-02-15T07:44:42;32.15;;;16.08;;
39956;SDS011;48483;44.640;7.494;2023-02-15T07:47:08;35.15;;;15.63;;
39956;SDS011;48483;44.640;7.494;2023-02-15T07:49:35;28.17;;;15.75;;
39956;SDS011;48483;44.640;7.494;2023-02-15T07:52:02;40.97;;;17.60;;
39956;SDS011;48483;44.640;7.494;2023-02-15T07:54:28;25.85;;;16.60;;
39956;SDS011;48483;44.640;7.494;2023-02-15T07:56:58;25.83;;;17.13;;
39956;SDS011;48483;44.640;7.494;2023-02-15T07:59:27;35.28;;;17.55;;
39956;SDS011;48483;44.640;7.494;2023-02-15T08:01:53;29.95;;;18.70;;
39956;SDS011;48483;44.640;7.494;2023-02-15T08:04:22;31.58;;;17.42;;
39956;SDS011;48483;44.640;7.494;2023-02-15T08:06:51;30.42;;;20.17;;
39956;SDS011;48483;44.640;7.494;2023-02-15T08:09:18;33.00;;;19.55;;
39956;SDS011;48483;44.640;7.494;2023-02-15T08:11:45;27.75;;;20.20;;
39956;SDS011;48483;44.640;7.494;2023-02-15T08:14:14;32.85;;;19.08;;
39956;SDS011;48483;44.640;7.494;2023-02-15T08:16:43;27.00;;;17.27;;
39956;SDS011;48483;44.640;7.494;2023-02-15T08:19:12;30.58;;;19.83;;
39956;SDS011;48483;44.640;7.494;2023-02-15T08:21:42;33.70;;;19.27;;
39956;SDS011;48483;44.640;7.494;2023-02-15T08:24:10;31.88;;;19.90;;
39956;SDS011;48483;44.640;7.494;2023-02-15T08:26:38;30.90;;;18.55;;
39956;SDS011;48483;44.640;7.494;2023-02-15T08:29:06;30.58;;;18.50;;
39956;SDS011;48483;44.640;7.494;2023-02-15T08:31:34;27.65;;;16.40;;
39956;SDS011;48483;44.640;7.494;2023-02-15T08:34:04;26.83;;;17.25;;
39956;SDS011;48483;44.640;7.494;2023-02-15T08:36:31;25.17;;;15.93;;
39956;SDS011;48483;44.640;7.494;2023-02-15T08:38:58;29.77;;;17.33;;
39956;SDS011;48483;44.640;7.494;2023-02-15T08:41:26;32.72;;;16.73;;
39956;SDS011;48483;44.640;7.494;2023-02-15T08:43:56;23.63;;;15.35;;
39956;SDS011;48483;44.640;7.494;2023-02-15T08:46:25;29.73;;;16.98;;
39956;SDS011;48483;44.640;7.494;2023-02-15T08:48:53;25.35;;;15.98;;
39956;SDS011;48483;44.640;7.494;2023-02-15T08:51:22;26.83;;;15.27;;
39956;SDS011;48483;44.640;7.494;2023-02-15T08:53:51;26.45;;;14.65;;
39956;SDS011;48483;44.640;7.494;2023-02-15T08:56:19;28.85;;;15.45;;
39956;SDS011;48483;44.640;7.494;2023-02-15T08:58:47;26.40;;;16.05;;
39956;SDS011;48483;44.640;7.494;2023-02-15T09:01:14;28.42;;;15.80;;
39956;SDS011;48483;44.640;7.494;2023-02-15T09:03:44;24.25;;;15.57;;
39956;SDS011;48483;44.640;7.494;2023-02-15T09:06:11;21.00;;;12.75;;
39956;SDS011;48483;44.640;7.494;2023-02-15T09:08:39;17.02;;;11.20;;
39956;SDS011;48483;44.640;7.494;2023-02-15T09:11:07;21.17;;;12.73;;
39956;SDS011;48483;44.640;7.494;2023-02-15T09:13:35;21.73;;;12.45;;
39956;SDS011;48483;44.640;7.494;2023-02-15T09:16:03;23.63;;;12.00;;
39956;SDS011;48483;44.640;7.494;2023-02-15T09:18:32;34.38;;;12.52;;
39956;SDS011;48483;44.640;7.494;2023-02-15T09:21:04;17.25;;;11.25;;
39956;SDS011;48483;44.640;7.494;2023-02-15T09:23:32;18.88;;;12.35;;
39956;SDS011;48483;44.640;7.494;2023-02-15T09:26:03;23.13;;;12.68;;
39956;SDS011;48483;44.640;7.494;2023-02-15T09:28:31;18.83;;;12.70;;
39956;SDS011;48483;44.640;7.494;2023-02-15T09:31:04;18.95;;;12.80;;
39956;SDS011;48483;44.640;7.494;2023-02-15T09:33:35;22.77;;;13.85;;
39956;SDS011;48483;44.640;7.494;2023-02-15T09:36:04;26.00;;;13.70;;
39956;SDS011;48483;44.640;7.494;2023-02-15T09:38:32;23.48;;;13.15;;
39956;SDS011;48483;44.640;7.494;2023-02-15T09:41:04;21.33;;;13.40;;
39956;SDS011;48483;44.640;7.494;2023-02-15T09:43:46;21.92;;;12.90;;
39956;SDS011;48483;44.640;7.494;2023-02-15T09:46:30;23.75;;;13.60;;
39956;SDS011;48483;44.640;7.494;2023-02-15T09:51:50;19.52;;;13.48;;
39956;SDS011;48483;44.640;7.494;2023-02-15T09:54:37;22.92;;;14.13;;
39956;SDS011;48483;44.640;7.494;2023-02-15T09:57:15;22.10;;;14.70;;
39956;SDS011;48483;44.640;7.494;2023-02-15T09:59:56;25.15;;;14.18;;
39956;SDS011;48483;44.640;7.494;2023-02-15T10:02:44;25.23;;;15.80;;
39956;SDS011;48483;44.640;7.494;2023-02-15T10:05:33;29.80;;;16.45;;
39956;SDS011;48483;44.640;7.494;2023-02-15T10:08:14;28.63;;;15.68;;
39956;SDS011;48483;44.640;7.494;2023-02-15T10:11:05;29.35;;;14.63;;
39956;SDS011;48483;44.640;7.494;2023-02-15T10:14:01;22.27;;;14.60;;
39956;SDS011;48483;44.640;7.494;2023-02-15T10:17:00;24.65;;;15.82;;
39956;SDS011;48483;44.640;7.494;2023-02-15T10:19:37;28.33;;;16.25;;
39956;SDS011;48483;44.640;7.494;2023-02-15T10:22:11;24.88;;;16.83;;
39956;SDS011;48483;44.640;7.494;2023-02-15T10:24:55;26.40;;;17.17;;
39956;SDS011;48483;44.640;7.494;2023-02-15T10:27:39;27.53;;;17.23;;
39956;SDS011;48483;44.640;7.494;2023-02-15T10:30:13;26.35;;;16.52;;
39956;SDS011;48483;44.640;7.494;2023-02-15T10:32:43;22.52;;;13.38;;
39956;SDS011;48483;44.640;7.494;2023-02-15T10:35:22;31.50;;;18.83;;
39956;SDS011;48483;44.640;7.494;2023-02-15T10:38:01;27.17;;;18.52;;
39956;SDS011;48483;44.640;7.494;2023-02-15T10:40:37;29.08;;;19.30;;
39956;SDS011;48483;44.640;7.494;2023-02-15T10:43:14;24.98;;;17.50;;
39956;SDS011;48483;44.640;7.494;2023-02-15T10:45:52;27.65;;;18.17;;
39956;SDS011;48483;44.640;7.494;2023-02-15T10:48:32;32.63;;;20.92;;
39956;SDS011;48483;44.640;7.494;2023-02-15T10:51:14;30.38;;;17.67;;
39956;SDS011;48483;44.640;7.494;2023-02-15T10:53:54;25.35;;;17.60;;
39956;SDS011;48483;44.640;7.494;2023-02-15T10:56:33;30.25;;;19.25;;
39956;SDS011;48483;44.640;7.494;2023-02-15T10:59:20;35.47;;;20.45;;
39956;SDS011;48483;44.640;7.494;2023-02-15T11:02:04;28.38;;;19.75;;
39956;SDS011;48483;44.640;7.494;2023-02-15T11:04:48;25.92;;;17.10;;
39956;SDS011;48483;44.640;7.494;2023-02-15T11:07:21;26.42;;;18.08;;
39956;SDS011;48483;44.640;7.494;2023-02-15T11:09:53;28.20;;;18.33;;
39956;SDS011;48483;44.640;7.494;2023-02-15T11:12:27;28.48;;;19.15;;
39956;SDS011;48483;44.640;7.494;2023-02-15T11:14:58;27.50;;;17.25;;
39956;SDS011;48483;44.640;7.494;2023-02-15T11:17:33;29.05;;;19.63;;
39956;SDS011;48483;44.640;7.494;2023-02-15T11:20:07;30.35;;;17.80;;
39956;SDS011;48483;44.640;7.494;2023-02-15T11:22:44;28.60;;;18.58;;
39956;SDS011;48483;44.640;7.494;2023-02-15T11:25:16;26.85;;;18.25;;
39956;SDS011;48483;44.640;7.494;2023-02-15T11:27:45;30.67;;;17.60;;
39956;SDS011;48483;44.640;7.494;2023-02-15T11:30:14;25.17;;;16.80;;
39956;SDS011;48483;44.640;7.494;2023-02-15T11:32:46;28.17;;;18.48;;
39956;SDS011;48483;44.640;7.494;2023-02-15T11:35:18;26.55;;;17.75;;
39956;SDS011;48483;44.640;7.494;2023-02-15T11:37:50;28.67;;;18.30;;
39956;SDS011;48483;44.640;7.494;2023-02-15T11:40:20;24.58;;;16.63;;
39956;SDS011;48483;44.640;7.494;2023-02-15T11:42:51;25.17;;;17.25;;
39956;SDS011;48483;44.640;7.494;2023-02-15T11:45:22;24.50;;;16.60;;
39956;SDS011;48483;44.640;7.494;2023-02-15T11:47:54;25.27;;;17.45;;
39956;SDS011;48483;44.640;7.494;2023-02-15T11:50:22;27.05;;;17.20;;
39956;SDS011;48483;44.640;7.494;2023-02-15T11:52:50;28.00;;;17.88;;
39956;SDS011;48483;44.640;7.494;2023-02-15T11:55:22;28.95;;;17.85;;
39956;SDS011;48483;44.640;7.494;2023-02-15T11:57:52;33.95;;;18.52;;
39956;SDS011;48483;44.640;7.494;2023-02-15T12:00:25;24.65;;;16.60;;
39956;SDS011;48483;44.640;7.494;2023-02-15T12:03:03;25.48;;;18.20;;
39956;SDS011;48483;44.640;7.494;2023-02-15T12:05:39;28.67;;;18.88;;
39956;SDS011;48483;44.640;7.494;2023-02-15T12:08:13;28.30;;;18.88;;
39956;SDS011;48483;44.640;7.494;2023-02-15T12:10:44;27.80;;;17.77;;
39956;SDS011;48483;44.640;7.494;2023-02-15T12:13:21;23.80;;;17.20;;
39956;SDS011;48483;44.640;7.494;2023-02-15T12:15:50;24.40;;;16.55;;
39956;SDS011;48483;44.640;7.494;2023-02-15T12:18:21;25.88;;;16.65;;
39956;SDS011;48483;44.640;7.494;2023-02-15T12:21:02;26.67;;;17.75;;
39956;SDS011;48483;44.640;7.494;2023-02-15T12:23:31;25.48;;;18.73;;
39956;SDS011;48483;44.640;7.494;2023-02-15T12:25:59;28.10;;;16.98;;
39956;SDS011;48483;44.640;7.494;2023-02-15T12:28:26;25.95;;;18.40;;
39956;SDS011;48483;44.640;7.494;2023-02-15T12:30:58;25.90;;;18.33;;
39956;SDS011;48483;44.640;7.494;2023-02-15T12:33:29;24.00;;;17.50;;
39956;SDS011;48483;44.640;7.494;2023-02-15T12:35:59;27.73;;;17.67;;
39956;SDS011;48483;44.640;7.494;2023-02-15T12:38:30;28.50;;;17.73;;
39956;SDS011;48483;44.640;7.494;2023-02-15T12:40:58;23.65;;;17.42;;
39956;SDS011;48483;44.640;7.494;2023-02-15T12:43:26;29.02;;;17.38;;
39956;SDS011;48483;44.640;7.494;2023-02-15T12:46:12;27.25;;;17.80;;
39956;SDS011;48483;44.640;7.494;2023-02-15T12:48:46;27.42;;;16.85;;
39956;SDS011;48483;44.640;7.494;2023-02-15T12:51:14;28.33;;;16.92;;
39956;SDS011;48483;44.640;7.494;2023-02-15T12:53:41;25.77;;;17.77;;
39956;SDS011;48483;44.640;7.494;2023-02-15T12:56:09;26.58;;;16.40;;
39956;SDS011;48483;44.640;7.494;2023-02-15T12:58:36;26.73;;;16.88;;
39956;SDS011;48483;44.640;7.494;2023-02-15T13:01:09;24.33;;;16.25;;
39956;SDS011;48483;44.640;7.494;2023-02-15T13:03:38;27.38;;;18.50;;
39956;SDS011;48483;44.640;7.494;2023-02-15T13:06:19;28.75;;;18.88;;
39956;SDS011;48483;44.640;7.494;2023-02-15T13:08:48;27.40;;;17.92;;
39956;SDS011;48483;44.640;7.494;2023-02-15T13:11:19;26.92;;;16.35;;
39956;SDS011;48483;44.640;7.494;2023-02-15T13:13:51;25.50;;;17.35;;
39956;SDS011;48483;44.640;7.494;2023-02-15T13:16:19;24.63;;;16.08;;
39956;SDS011;48483;44.640;7.494;2023-02-15T13:18:54;24.23;;;16.73;;
39956;SDS011;48483;44.640;7.494;2023-02-15T13:21:23;25.80;;;17.75;;
39956;SDS011;48483;44.640;7.494;2023-02-15T13:23:53;24.40;;;17.23;;
39956;SDS011;48483;44.640;7.494;2023-02-15T13:28:53;26.60;;;18.52;;
39956;SDS011;48483;44.640;7.494;2023-02-15T13:31:23;20.83;;;15.38;;
39956;SDS011;48483;44.640;7.494;2023-02-15T13:33:54;27.40;;;16.70;;
39956;SDS011;48483;44.640;7.494;2023-02-15T13:36:27;24.17;;;15.52;;
39956;SDS011;48483;44.640;7.494;2023-02-15T13:39:07;27.77;;;17.20;;
39956;SDS011;48483;44.640;7.494;2023-02-15T13:41:46;23.38;;;15.85;;
39956;SDS011;48483;44.640;7.494;2023-02-15T13:44:20;22.85;;;16.05;;
39956;SDS011;48483;44.640;7.494;2023-02-15T13:46:58;22.63;;;16.67;;
39956;SDS011;48483;44.640;7.494;2023-02-15T13:49:41;25.38;;;16.58;;
39956;SDS011;48483;44.640;7.494;2023-02-15T13:52:19;24.95;;;15.35;;
39956;SDS011;48483;44.640;7.494;2023-02-15T13:54:50;21.75;;;15.57;;
39956;SDS011;48483;44.640;7.494;2023-02-15T13:57:31;25.00;;;17.23;;
39956;SDS011;48483;44.640;7.494;2023-02-15T14:00:13;27.80;;;17.05;;
39956;SDS011;48483;44.640;7.494;2023-02-15T14:02:51;23.67;;;15.98;;
39956;SDS011;48483;44.640;7.494;2023-02-15T14:05:31;25.20;;;16.75;;
39956;SDS011;48483;44.640;7.494;2023-02-15T14:08:14;21.80;;;15.90;;
39956;SDS011;48483;44.640;7.494;2023-02-15T14:11:02;21.83;;;15.80;;
39956;SDS011;48483;44.640;7.494;2023-02-15T14:13:58;24.27;;;16.67;;
39956;SDS011;48483;44.640;7.494;2023-02-15T14:16:48;26.05;;;16.38;;
39956;SDS011;48483;44.640;7.494;2023-02-15T14:19:21;22.48;;;15.48;;
39956;SDS011;48483;44.640;7.494;2023-02-15T14:21:56;23.13;;;16.42;;
39956;SDS011;48483;44.640;7.494;2023-02-15T14:24:32;25.90;;;16.45;;
39956;SDS011;48483;44.640;7.494;2023-02-15T14:27:06;22.45;;;15.70;;
39956;SDS011;48483;44.640;7.494;2023-02-15T14:29:48;29.75;;;18.02;;
39956;SDS011;48483;44.640;7.494;2023-02-15T14:32:19;25.95;;;17.33;;
39956;SDS011;48483;44.640;7.494;2023-02-15T14:34:52;23.55;;;16.45;;
39956;SDS011;48483;44.640;7.494;2023-02-15T14:37:22;26.08;;;15.65;;
39956;SDS011;48483;44.640;7.494;2023-02-15T14:39:59;24.15;;;16.27;;
39956;SDS011;48483;44.640;7.494;2023-02-15T14:42:50;27.20;;;17.90;;
39956;SDS011;48483;44.640;7.494;2023-02-15T14:45:22;23.73;;;14.80;;
39956;SDS011;48483;44.640;7.494;2023-02-15T14:47:57;24.08;;;16.65;;
39956;SDS011;48483;44.640;7.494;2023-02-15T14:50:38;24.23;;;17.50;;
39956;SDS011;48483;44.640;7.494;2023-02-15T14:53:32;24.85;;;17.67;;
39956;SDS011;48483;44.640;7.494;2023-02-15T14:56:19;27.52;;;17.17;;
39956;SDS011;48483;44.640;7.494;2023-02-15T14:59:07;25.40;;;16.77;;
39956;SDS011;48483;44.640;7.494;2023-02-15T15:01:40;30.80;;;17.50;;
39956;SDS011;48483;44.640;7.494;2023-02-15T15:04:07;26.15;;;16.95;;
39956;SDS011;48483;44.640;7.494;2023-02-15T15:06:38;23.92;;;18.10;;